sensor_id;sensor_type;location;lat;lon;timestamp;temperature;humidity
65707;SHT31;52423;43.512;5.220;2023-03-01T00:01:20;4.08;73.86
65707;SHT31;52423;43.512;5.220;2023-03-01T00:03:52;4.10;74.10
65707;SHT31;52423;43.512;5.220;2023-03-01T00:06:19;4.01;73.33
65707;SHT31;52423;43.512;5.220;2023-03-01T00:08:54;4.03;73.95
65707;SHT31;52423;43.512;5.220;2023-03-01T00:11:24;3.98;74.32
65707;SHT31;52423;43.512;5.220;2023-03-01T00:13:52;3.86;74.39
65707;SHT31;52423;43.512;5.220;2023-03-01T00:16:33;3.80;74.75
65707;SHT31;52423;43.512;5.220;2023-03-01T00:18:59;3.89;75.77
65707;SHT31;52423;43.512;5.220;2023-03-01T00:21:25;3.91;75.12
65707;SHT31;52423;43.512;5.220;2023-03-01T00:23:51;3.86;74.87
65707;SHT31;52423;43.512;5.220;2023-03-01T00:26:18;3.85;74.96
65707;SHT31;52423;43.512;5.220;2023-03-01T00:28:50;3.77;75.16
65707;SHT31;52423;43.512;5.220;2023-03-01T00:31:18;3.73;75.48
65707;SHT31;52423;43.512;5.220;2023-03-01T00:33:59;3.58;75.35
65707;SHT31;52423;43.512;5.220;2023-03-01T00:36:28;3.55;75.86
65707;SHT31;52423;43.512;5.220;2023-03-01T00:38:56;3.56;76.10
65707;SHT31;52423;43.512;5.220;2023-03-01T00:41:23;3.48;76.20
65707;SHT31;52423;43.512;5.220;2023-03-01T00:43:58;3.46;75.66
65707;SHT31;52423;43.512;5.220;2023-03-01T00:46:25;3.43;74.72
65707;SHT31;52423;43.512;5.220;2023-03-01T00:49:00;3.32;75.84
65707;SHT31;52423;43.512;5.220;2023-03-01T00:51:28;3.14;75.11
65707;SHT31;52423;43.512;5.220;2023-03-01T00:54:01;3.21;76.45
65707;SHT31;52423;43.512;5.220;2023-03-01T00:56:27;3.26;76.80
65707;SHT31;52423;43.512;5.220;2023-03-01T00:59:04;3.19;77.26
65707;SHT31;52423;43.512;5.220;2023-03-01T01:01:30;3.19;76.63
65707;SHT31;52423;43.512;5.220;2023-03-01T01:04:12;2.90;75.79
65707;SHT31;52423;43.512;5.220;2023-03-01T01:06:41;2.91;77.23
65707;SHT31;52423;43.512;5.220;2023-03-01T01:09:08;2.87;78.42
65707;SHT31;52423;43.512;5.220;2023-03-01T01:11:47;2.81;78.91
65707;SHT31;52423;43.512;5.220;2023-03-01T01:14:20;2.66;77.88
65707;SHT31;52423;43.512;5.220;2023-03-01T01:16:51;2.60;78.86
65707;SHT31;52423;43.512;5.220;2023-03-01T01:19:17;2.64;77.52
65707;SHT31;52423;43.512;5.220;2023-03-01T01:21:43;2.66;77.87
65707;SHT31;52423;43.512;5.220;2023-03-01T01:24:14;2.54;77.77
65707;SHT31;52423;43.512;5.220;2023-03-01T01:26:40;2.43;76.38
65707;SHT31;52423;43.512;5.220;2023-03-01T01:29:06;2.49;77.81
65707;SHT31;52423;43.512;5.220;2023-03-01T01:31:32;2.58;79.25
65707;SHT31;52423;43.512;5.220;2023-03-01T01:34:09;2.60;77.97
65707;SHT31;52423;43.512;5.220;2023-03-01T01:36:37;2.35;78.25
65707;SHT31;52423;43.512;5.220;2023-03-01T01:39:06;2.33;78.26
65707;SHT31;52423;43.512;5.220;2023-03-01T01:41:39;2.13;77.92
65707;SHT31;52423;43.512;5.220;2023-03-01T01:47:04;2.21;76.96
65707;SHT31;52423;43.512;5.220;2023-03-01T01:49:38;2.19;76.63
65707;SHT31;52423;43.512;5.220;2023-03-01T01:54:37;2.52;78.47
65707;SHT31;52423;43.512;5.220;2023-03-01T01:57:08;2.60;78.89
65707;SHT31;52423;43.512;5.220;2023-03-01T01:59:36;2.64;78.15
65707;SHT31;52423;43.512;5.220;2023-03-01T02:02:03;2.64;78.41
65707;SHT31;52423;43.512;5.220;2023-03-01T02:04:30;2.74;77.68
65707;SHT31;52423;43.512;5.220;2023-03-01T02:07:13;2.66;77.85
65707;SHT31;52423;43.512;5.220;2023-03-01T02:09:42;2.66;78.49
65707;SHT31;52423;43.512;5.220;2023-03-01T02:12:09;2.57;79.17
65707;SHT31;52423;43.512;5.220;2023-03-01T02:14:37;2.60;77.81
65707;SHT31;52423;43.512;5.220;2023-03-01T02:17:09;2.72;78.41
65707;SHT31;52423;43.512;5.220;2023-03-01T02:22:28;2.74;78.41
65707;SHT31;52423;43.512;5.220;2023-03-01T02:27:40;2.64;78.92
65707;SHT31;52423;43.512;5.220;2023-03-01T02:30:21;2.72;80.34
65707;SHT31;52423;43.512;5.220;2023-03-01T02:32:47;2.72;79.55
65707;SHT31;52423;43.512;5.220;2023-03-01T02:35:16;2.70;78.77
65707;SHT31;52423;43.512;5.220;2023-03-01T02:37:43;2.63;78.58
65707;SHT31;52423;43.512;5.220;2023-03-01T02:40:13;2.58;78.57
65707;SHT31;52423;43.512;5.220;2023-03-01T02:42:51;2.53;78.37
65707;SHT31;52423;43.512;5.220;2023-03-01T02:45:17;2.54;78.25
65707;SHT31;52423;43.512;5.220;2023-03-01T02:47:48;2.61;79.71
65707;SHT31;52423;43.512;5.220;2023-03-01T02:50:34;2.53;78.77
65707;SHT31;52423;43.512;5.220;2023-03-01T02:53:21;2.54;77.90
65707;SHT31;52423;43.512;5.220;2023-03-01T02:55:53;2.61;77.98
65707;SHT31;52423;43.512;5.220;2023-03-01T02:58:19;2.64;77.78
65707;SHT31;52423;43.512;5.220;2023-03-01T03:00:45;2.66;80.07
65707;SHT31;52423;43.512;5.220;2023-03-01T03:03:20;2.67;79.29
65707;SHT31;52423;43.512;5.220;2023-03-01T03:05:46;2.76;78.57
65707;SHT31;52423;43.512;5.220;2023-03-01T03:08:16;2.81;78.00
65707;SHT31;52423;43.512;5.220;2023-03-01T03:10:49;2.93;78.77
65707;SHT31;52423;43.512;5.220;2023-03-01T03:13:26;2.90;79.34
65707;SHT31;52423;43.512;5.220;2023-03-01T03:15:54;2.90;80.10
65707;SHT31;52423;43.512;5.220;2023-03-01T03:18:21;2.79;79.26
65707;SHT31;52423;43.512;5.220;2023-03-01T03:20:47;2.72;77.90
65707;SHT31;52423;43.512;5.220;2023-03-01T03:23:13;2.79;79.91
65707;SHT31;52423;43.512;5.220;2023-03-01T03:25:41;2.90;80.01
65707;SHT31;52423;43.512;5.220;2023-03-01T03:28:07;2.94;79.46
65707;SHT31;52423;43.512;5.220;2023-03-01T03:30:45;3.04;78.53
65707;SHT31;52423;43.512;5.220;2023-03-01T03:33:12;2.97;78.02
65707;SHT31;52423;43.512;5.220;2023-03-01T03:35:47;2.94;79.37
65707;SHT31;52423;43.512;5.220;2023-03-01T03:38:14;2.90;77.92
65707;SHT31;52423;43.512;5.220;2023-03-01T03:40:44;2.90;77.82
65707;SHT31;52423;43.512;5.220;2023-03-01T03:43:14;3.03;78.98
65707;SHT31;52423;43.512;5.220;2023-03-01T03:45:39;3.08;78.73
65707;SHT31;52423;43.512;5.220;2023-03-01T03:48:09;3.05;78.38
65707;SHT31;52423;43.512;5.220;2023-03-01T03:50:35;3.03;78.55
65707;SHT31;52423;43.512;5.220;2023-03-01T03:53:03;3.04;78.10
65707;SHT31;52423;43.512;5.220;2023-03-01T03:55:29;2.95;77.98
65707;SHT31;52423;43.512;5.220;2023-03-01T03:57:57;2.98;79.02
65707;SHT31;52423;43.512;5.220;2023-03-01T04:00:28;3.00;79.21
65707;SHT31;52423;43.512;5.220;2023-03-01T04:02:54;2.98;79.52
65707;SHT31;52423;43.512;5.220;2023-03-01T04:05:22;2.94;79.74
65707;SHT31;52423;43.512;5.220;2023-03-01T04:07:47;2.97;79.36
65707;SHT31;52423;43.512;5.220;2023-03-01T04:10:17;2.98;79.46
65707;SHT31;52423;43.512;5.220;2023-03-01T04:12:45;2.95;79.82
65707;SHT31;52423;43.512;5.220;2023-03-01T04:15:12;3.00;80.43
65707;SHT31;52423;43.512;5.220;2023-03-01T04:17:44;2.97;79.65
65707;SHT31;52423;43.512;5.220;2023-03-01T04:20:22;3.01;79.07
65707;SHT31;52423;43.512;5.220;2023-03-01T04:23:17;2.94;79.21
65707;SHT31;52423;43.512;5.220;2023-03-01T04:26:01;2.94;79.63
65707;SHT31;52423;43.512;5.220;2023-03-01T04:28:35;2.91;79.43
65707;SHT31;52423;43.512;5.220;2023-03-01T04:31:10;2.87;80.06
65707;SHT31;52423;43.512;5.220;2023-03-01T04:33:43;2.88;80.22
65707;SHT31;52423;43.512;5.220;2023-03-01T04:36:16;2.76;80.31
65707;SHT31;52423;43.512;5.220;2023-03-01T04:38:41;2.79;80.94
65707;SHT31;52423;43.512;5.220;2023-03-01T04:41:09;2.84;81.05
65707;SHT31;52423;43.512;5.220;2023-03-01T04:43:35;2.80;80.40
65707;SHT31;52423;43.512;5.220;2023-03-01T04:46:03;2.84;80.28
65707;SHT31;52423;43.512;5.220;2023-03-01T04:48:36;2.81;80.63
65707;SHT31;52423;43.512;5.220;2023-03-01T04:51:02;2.87;80.53
65707;SHT31;52423;43.512;5.220;2023-03-01T04:53:28;2.85;80.35
65707;SHT31;52423;43.512;5.220;2023-03-01T04:55:55;2.80;80.14
65707;SHT31;52423;43.512;5.220;2023-03-01T04:58:22;2.84;80.93
65707;SHT31;52423;43.512;5.220;2023-03-01T05:00:54;2.77;80.70
65707;SHT31;52423;43.512;5.220;2023-03-01T05:03:20;2.73;81.12
65707;SHT31;52423;43.512;5.220;2023-03-01T05:05:48;2.76;81.94
65707;SHT31;52423;43.512;5.220;2023-03-01T05:08:15;2.79;81.39
65707;SHT31;52423;43.512;5.220;2023-03-01T05:10:48;2.73;80.47
65707;SHT31;52423;43.512;5.220;2023-03-01T05:13:14;2.72;79.29
65707;SHT31;52423;43.512;5.220;2023-03-01T05:15:55;2.70;80.54
65707;SHT31;52423;43.512;5.220;2023-03-01T05:18:24;2.80;80.51
65707;SHT31;52423;43.512;5.220;2023-03-01T05:20:54;2.77;80.56
65707;SHT31;52423;43.512;5.220;2023-03-01T05:23:24;2.67;80.13
65707;SHT31;52423;43.512;5.220;2023-03-01T05:25:49;2.61;79.64
65707;SHT31;52423;43.512;5.220;2023-03-01T05:28:18;2.64;79.71
65707;SHT31;52423;43.512;5.220;2023-03-01T05:30:47;2.60;79.49
65707;SHT31;52423;43.512;5.220;2023-03-01T05:33:12;2.60;80.63
65707;SHT31;52423;43.512;5.220;2023-03-01T05:35:45;2.63;80.73
65707;SHT31;52423;43.512;5.220;2023-03-01T05:38:11;2.58;79.08
65707;SHT31;52423;43.512;5.220;2023-03-01T05:40:45;2.66;79.16
65707;SHT31;52423;43.512;5.220;2023-03-01T05:43:15;2.67;79.91
65707;SHT31;52423;43.512;5.220;2023-03-01T05:45:42;2.64;79.45
65707;SHT31;52423;43.512;5.220;2023-03-01T05:48:08;2.74;80.83
65707;SHT31;52423;43.512;5.220;2023-03-01T05:50:44;2.73;80.82
65707;SHT31;52423;43.512;5.220;2023-03-01T05:53:19;2.74;80.63
65707;SHT31;52423;43.512;5.220;2023-03-01T05:55:46;2.73;80.56
65707;SHT31;52423;43.512;5.220;2023-03-01T05:58:18;2.74;80.32
65707;SHT31;52423;43.512;5.220;2023-03-01T06:00:49;2.73;80.65
65707;SHT31;52423;43.512;5.220;2023-03-01T06:03:18;2.64;80.38
65707;SHT31;52423;43.512;5.220;2023-03-01T06:05:44;2.54;80.70
65707;SHT31;52423;43.512;5.220;2023-03-01T06:08:10;2.47;80.86
65707;SHT31;52423;43.512;5.220;2023-03-01T06:10:36;2.57;81.22
65707;SHT31;52423;43.512;5.220;2023-03-01T06:13:02;2.44;79.60
65707;SHT31;52423;43.512;5.220;2023-03-01T06:15:27;2.39;80.45
65707;SHT31;52423;43.512;5.220;2023-03-01T06:17:54;2.46;81.37
65707;SHT31;52423;43.512;5.220;2023-03-01T06:20:23;2.43;81.38
65707;SHT31;52423;43.512;5.220;2023-03-01T06:22:49;2.26;79.84
65707;SHT31;52423;43.512;5.220;2023-03-01T06:25:17;2.26;80.22
65707;SHT31;52423;43.512;5.220;2023-03-01T06:27:49;2.19;79.82
65707;SHT31;52423;43.512;5.220;2023-03-01T06:30:16;2.36;82.01
65707;SHT31;52423;43.512;5.220;2023-03-01T06:32:43;2.26;79.77
65707;SHT31;52423;43.512;5.220;2023-03-01T06:35:10;2.19;79.77
65707;SHT31;52423;43.512;5.220;2023-03-01T06:37:36;2.19;79.60
65707;SHT31;52423;43.512;5.220;2023-03-01T06:40:10;2.21;79.43
65707;SHT31;52423;43.512;5.220;2023-03-01T06:42:38;2.44;80.99
65707;SHT31;52423;43.512;5.220;2023-03-01T06:45:13;2.44;78.80
65707;SHT31;52423;43.512;5.220;2023-03-01T06:47:38;2.56;80.35
65707;SHT31;52423;43.512;5.220;2023-03-01T06:50:17;2.57;79.66
65707;SHT31;52423;43.512;5.220;2023-03-01T06:52:42;2.63;77.56
65707;SHT31;52423;43.512;5.220;2023-03-01T06:55:16;2.74;79.68
65707;SHT31;52423;43.512;5.220;2023-03-01T06:57:41;2.79;80.16
65707;SHT31;52423;43.512;5.220;2023-03-01T07:00:19;2.91;80.15
65707;SHT31;52423;43.512;5.220;2023-03-01T07:02:51;2.85;80.44
65707;SHT31;52423;43.512;5.220;2023-03-01T07:05:20;3.01;80.07
65707;SHT31;52423;43.512;5.220;2023-03-01T07:07:45;3.05;80.08
65707;SHT31;52423;43.512;5.220;2023-03-01T07:10:23;3.09;79.55
65707;SHT31;52423;43.512;5.220;2023-03-01T07:12:55;3.12;79.70
65707;SHT31;52423;43.512;5.220;2023-03-01T07:15:20;3.16;79.96
65707;SHT31;52423;43.512;5.220;2023-03-01T07:17:45;3.22;79.58
65707;SHT31;52423;43.512;5.220;2023-03-01T07:20:13;3.22;78.38
65707;SHT31;52423;43.512;5.220;2023-03-01T07:22:41;3.31;78.75
65707;SHT31;52423;43.512;5.220;2023-03-01T07:25:10;3.34;78.89
65707;SHT31;52423;43.512;5.220;2023-03-01T07:27:36;3.40;78.18
65707;SHT31;52423;43.512;5.220;2023-03-01T07:30:02;3.49;77.65
65707;SHT31;52423;43.512;5.220;2023-03-01T07:32:28;3.49;77.82
65707;SHT31;52423;43.512;5.220;2023-03-01T07:34:53;3.56;77.42
65707;SHT31;52423;43.512;5.220;2023-03-01T07:37:27;3.63;77.56
65707;SHT31;52423;43.512;5.220;2023-03-01T07:39:53;3.69;77.00
65707;SHT31;52423;43.512;5.220;2023-03-01T07:42:18;3.76;76.71
65707;SHT31;52423;43.512;5.220;2023-03-01T07:44:43;3.82;76.03
65707;SHT31;52423;43.512;5.220;2023-03-01T07:47:09;3.82;75.46
65707;SHT31;52423;43.512;5.220;2023-03-01T07:49:46;3.80;76.61
65707;SHT31;52423;43.512;5.220;2023-03-01T07:52:11;3.87;76.33
65707;SHT31;52423;43.512;5.220;2023-03-01T07:54:37;3.96;75.67
65707;SHT31;52423;43.512;5.220;2023-03-01T07:57:03;3.89;73.23
65707;SHT31;52423;43.512;5.220;2023-03-01T07:59:28;3.90;72.96
65707;SHT31;52423;43.512;5.220;2023-03-01T08:01:57;4.01;74.67
65707;SHT31;52423;43.512;5.220;2023-03-01T08:04:23;4.07;72.98
65707;SHT31;52423;43.512;5.220;2023-03-01T08:06:50;4.27;71.52
65707;SHT31;52423;43.512;5.220;2023-03-01T08:09:21;4.28;70.18
65707;SHT31;52423;43.512;5.220;2023-03-01T08:11:47;4.59;69.51
65707;SHT31;52423;43.512;5.220;2023-03-01T08:14:18;4.80;69.00
65707;SHT31;52423;43.512;5.220;2023-03-01T08:16:44;4.38;68.12
65707;SHT31;52423;43.512;5.220;2023-03-01T08:19:15;4.17;68.63
65707;SHT31;52423;43.512;5.220;2023-03-01T08:21:40;4.28;71.85
65707;SHT31;52423;43.512;5.220;2023-03-01T08:24:07;4.33;70.42
65707;SHT31;52423;43.512;5.220;2023-03-01T08:26:35;4.18;71.02
65707;SHT31;52423;43.512;5.220;2023-03-01T08:29:02;4.08;68.83
65707;SHT31;52423;43.512;5.220;2023-03-01T08:31:31;4.24;72.35
65707;SHT31;52423;43.512;5.220;2023-03-01T08:34:09;4.30;72.23
65707;SHT31;52423;43.512;5.220;2023-03-01T08:36:37;4.35;73.67
65707;SHT31;52423;43.512;5.220;2023-03-01T08:39:04;4.48;72.81
65707;SHT31;52423;43.512;5.220;2023-03-01T08:41:29;4.69;71.32
65707;SHT31;52423;43.512;5.220;2023-03-01T08:44:01;4.86;70.94
65707;SHT31;52423;43.512;5.220;2023-03-01T08:46:44;4.89;69.59
65707;SHT31;52423;43.512;5.220;2023-03-01T08:49:12;5.13;69.14
65707;SHT31;52423;43.512;5.220;2023-03-01T08:51:39;5.75;70.39
65707;SHT31;52423;43.512;5.220;2023-03-01T08:54:16;6.36;66.38
65707;SHT31;52423;43.512;5.220;2023-03-01T08:56:42;6.03;65.67
65707;SHT31;52423;43.512;5.220;2023-03-01T08:59:08;5.57;63.55
65707;SHT31;52423;43.512;5.220;2023-03-01T09:01:34;5.77;66.25
65707;SHT31;52423;43.512;5.220;2023-03-01T09:03:59;5.84;66.08
65707;SHT31;52423;43.512;5.220;2023-03-01T09:06:32;6.02;66.80
65707;SHT31;52423;43.512;5.220;2023-03-01T09:08:58;5.77;64.68
65707;SHT31;52423;43.512;5.220;2023-03-01T09:11:24;5.79;64.37
65707;SHT31;52423;43.512;5.220;2023-03-01T09:13:52;5.89;64.83
65707;SHT31;52423;43.512;5.220;2023-03-01T09:16:21;5.89;66.25
65707;SHT31;52423;43.512;5.220;2023-03-01T09:18:51;5.82;67.38
65707;SHT31;52423;43.512;5.220;2023-03-01T09:21:19;5.81;68.55
65707;SHT31;52423;43.512;5.220;2023-03-01T09:23:56;5.96;65.87
65707;SHT31;52423;43.512;5.220;2023-03-01T09:26:23;6.13;64.86
65707;SHT31;52423;43.512;5.220;2023-03-01T09:28:50;6.08;64.77
65707;SHT31;52423;43.512;5.220;2023-03-01T09:31:17;5.96;66.77
65707;SHT31;52423;43.512;5.220;2023-03-01T09:33:46;6.05;64.97
65707;SHT31;52423;43.512;5.220;2023-03-01T09:36:15;6.02;66.09
65707;SHT31;52423;43.512;5.220;2023-03-01T09:38:41;6.06;63.81
65707;SHT31;52423;43.512;5.220;2023-03-01T09:41:26;6.08;65.34
65707;SHT31;52423;43.512;5.220;2023-03-01T09:44:01;6.09;65.79
65707;SHT31;52423;43.512;5.220;2023-03-01T09:46:36;6.09;62.25
65707;SHT31;52423;43.512;5.220;2023-03-01T09:49:10;6.15;62.60
65707;SHT31;52423;43.512;5.220;2023-03-01T09:51:37;6.09;65.20
65707;SHT31;52423;43.512;5.220;2023-03-01T09:54:16;6.47;63.63
65707;SHT31;52423;43.512;5.220;2023-03-01T09:56:47;7.28;61.96
65707;SHT31;52423;43.512;5.220;2023-03-01T09:59:26;7.93;60.99
65707;SHT31;52423;43.512;5.220;2023-03-01T10:01:59;8.11;57.90
65707;SHT31;52423;43.512;5.220;2023-03-01T10:09:43;8.21;57.60
65707;SHT31;52423;43.512;5.220;2023-03-01T10:12:14;8.22;55.33
65707;SHT31;52423;43.512;5.220;2023-03-01T10:14:51;8.72;58.67
65707;SHT31;52423;43.512;5.220;2023-03-01T10:20:25;9.21;56.14
65707;SHT31;52423;43.512;5.220;2023-03-01T10:22:51;8.39;54.23
65707;SHT31;52423;43.512;5.220;2023-03-01T10:25:36;8.10;57.55
65707;SHT31;52423;43.512;5.220;2023-03-01T10:28:40;8.20;59.84
65707;SHT31;52423;43.512;5.220;2023-03-01T10:31:19;8.25;57.08
65707;SHT31;52423;43.512;5.220;2023-03-01T10:33:47;8.39;54.96
65707;SHT31;52423;43.512;5.220;2023-03-01T10:36:16;8.68;55.67
65707;SHT31;52423;43.512;5.220;2023-03-01T10:38:51;9.09;58.11
65707;SHT31;52423;43.512;5.220;2023-03-01T10:41:20;9.40;57.65
65707;SHT31;52423;43.512;5.220;2023-03-01T10:46:43;9.40;53.89
65707;SHT31;52423;43.512;5.220;2023-03-01T10:49:22;9.62;55.80
65707;SHT31;52423;43.512;5.220;2023-03-01T10:51:52;9.58;57.64
65707;SHT31;52423;43.512;5.220;2023-03-01T10:54:28;9.38;54.77
65707;SHT31;52423;43.512;5.220;2023-03-01T10:56:59;9.54;54.15
65707;SHT31;52423;43.512;5.220;2023-03-01T10:59:31;9.64;55.58
65707;SHT31;52423;43.512;5.220;2023-03-01T11:02:17;9.64;54.66
65707;SHT31;52423;43.512;5.220;2023-03-01T11:05:13;9.70;56.49
65707;SHT31;52423;43.512;5.220;2023-03-01T11:07:57;9.74;52.00
65707;SHT31;52423;43.512;5.220;2023-03-01T11:10:31;9.88;54.13
65707;SHT31;52423;43.512;5.220;2023-03-01T11:13:19;10.10;54.89
65707;SHT31;52423;43.512;5.220;2023-03-01T11:16:14;9.86;53.56
65707;SHT31;52423;43.512;5.220;2023-03-01T11:18:39;9.83;55.08
65707;SHT31;52423;43.512;5.220;2023-03-01T11:21:17;9.74;54.24
65707;SHT31;52423;43.512;5.220;2023-03-01T11:23:45;9.65;54.59
65707;SHT31;52423;43.512;5.220;2023-03-01T11:26:18;9.58;55.76
65707;SHT31;52423;43.512;5.220;2023-03-01T11:28:53;9.30;54.06
65707;SHT31;52423;43.512;5.220;2023-03-01T11:31:19;9.17;56.17
65707;SHT31;52423;43.512;5.220;2023-03-01T11:33:55;9.03;56.30
65707;SHT31;52423;43.512;5.220;2023-03-01T11:36:35;8.93;56.97
65707;SHT31;52423;43.512;5.220;2023-03-01T11:39:16;8.97;58.61
65707;SHT31;52423;43.512;5.220;2023-03-01T11:41:42;9.03;55.40
65707;SHT31;52423;43.512;5.220;2023-03-01T11:44:17;9.17;58.78
65707;SHT31;52423;43.512;5.220;2023-03-01T11:52:21;9.23;57.80
65707;SHT31;52423;43.512;5.220;2023-03-01T12:11:47;9.72;56.34
65707;SHT31;52423;43.512;5.220;2023-03-01T12:17:01;9.74;54.09
65707;SHT31;52423;43.512;5.220;2023-03-01T12:25:27;9.98;54.63
65707;SHT31;52423;43.512;5.220;2023-03-01T12:49:33;10.17;54.50
65707;SHT31;52423;43.512;5.220;2023-03-01T12:52:12;10.05;52.60
65707;SHT31;52423;43.512;5.220;2023-03-01T12:54:39;10.01;55.01
65707;SHT31;52423;43.512;5.220;2023-03-01T12:57:21;9.95;55.32
65707;SHT31;52423;43.512;5.220;2023-03-01T13:00:22;9.93;54.29
65707;SHT31;52423;43.512;5.220;2023-03-01T13:03:31;9.99;51.66
65707;SHT31;52423;43.512;5.220;2023-03-01T13:06:34;9.99;52.91
65707;SHT31;52423;43.512;5.220;2023-03-01T13:11:46;10.16;54.17
65707;SHT31;52423;43.512;5.220;2023-03-01T13:16:49;10.36;51.02
65707;SHT31;52423;43.512;5.220;2023-03-01T13:19:17;10.33;52.91
65707;SHT31;52423;43.512;5.220;2023-03-01T13:21:44;10.37;53.29
65707;SHT31;52423;43.512;5.220;2023-03-01T13:24:41;10.28;52.10
65707;SHT31;52423;43.512;5.220;2023-03-01T13:29:53;10.26;50.30
65707;SHT31;52423;43.512;5.220;2023-03-01T13:37:45;10.16;50.80
65707;SHT31;52423;43.512;5.220;2023-03-01T13:43:27;10.23;51.40
65707;SHT31;52423;43.512;5.220;2023-03-01T13:45:51;10.42;52.50
65707;SHT31;52423;43.512;5.220;2023-03-01T13:48:24;10.57;50.93
65707;SHT31;52423;43.512;5.220;2023-03-01T13:50:59;10.82;51.96
65707;SHT31;52423;43.512;5.220;2023-03-01T13:53:30;10.92;52.27
65707;SHT31;52423;43.512;5.220;2023-03-01T13:56:13;10.98;51.38
65707;SHT31;52423;43.512;5.220;2023-03-01T13:58:49;10.95;49.34
65707;SHT31;52423;43.512;5.220;2023-03-01T14:03:49;10.87;51.68
65707;SHT31;52423;43.512;5.220;2023-03-01T14:06:19;10.92;51.66
65707;SHT31;52423;43.512;5.220;2023-03-01T14:08:46;10.85;49.03
65707;SHT31;52423;43.512;5.220;2023-03-01T14:11:52;10.78;49.89
65707;SHT31;52423;43.512;5.220;2023-03-01T14:19:57;10.75;49.95
65707;SHT31;52423;43.512;5.220;2023-03-01T14:24:57;10.92;50.57
65707;SHT31;52423;43.512;5.220;2023-03-01T14:27:26;10.90;50.59
65707;SHT31;52423;43.512;5.220;2023-03-01T14:29:58;10.80;51.62
65707;SHT31;52423;43.512;5.220;2023-03-01T14:32:27;10.71;50.19
65707;SHT31;52423;43.512;5.220;2023-03-01T14:34:57;10.67;52.65
65707;SHT31;52423;43.512;5.220;2023-03-01T14:37:32;10.73;52.15
65707;SHT31;52423;43.512;5.220;2023-03-01T14:40:03;10.71;49.34
65707;SHT31;52423;43.512;5.220;2023-03-01T14:42:34;10.78;48.80
65707;SHT31;52423;43.512;5.220;2023-03-01T14:45:12;10.82;49.73
65707;SHT31;52423;43.512;5.220;2023-03-01T14:47:38;10.73;50.76
65707;SHT31;52423;43.512;5.220;2023-03-01T14:50:46;10.67;51.74
65707;SHT31;52423;43.512;5.220;2023-03-01T14:53:06;10.64;51.34
65707;SHT31;52423;43.512;5.220;2023-03-01T14:55:44;10.67;52.01
65707;SHT31;52423;43.512;5.220;2023-03-01T14:58:18;10.78;49.01
65707;SHT31;52423;43.512;5.220;2023-03-01T15:00:58;10.80;51.78
65707;SHT31;52423;43.512;5.220;2023-03-01T15:03:40;10.75;49.86
65707;SHT31;52423;43.512;5.220;2023-03-01T15:06:08;10.81;52.55
65707;SHT31;52423;43.512;5.220;2023-03-01T15:09:10;10.60;50.95
65707;SHT31;52423;43.512;5.220;2023-03-01T15:11:30;10.47;52.20
65707;SHT31;52423;43.512;5.220;2023-03-01T15:13:57;10.36;52.05
65707;SHT31;52423;43.512;5.220;2023-03-01T15:16:33;10.39;52.00
65707;SHT31;52423;43.512;5.220;2023-03-01T15:19:05;10.36;51.56
65707;SHT31;52423;43.512;5.220;2023-03-01T15:21:37;10.26;53.41
65707;SHT31;52423;43.512;5.220;2023-03-01T15:29:32;10.06;52.90
65707;SHT31;52423;43.512;5.220;2023-03-01T15:32:31;10.03;52.56
65707;SHT31;52423;43.512;5.220;2023-03-01T15:34:59;9.98;53.95
65707;SHT31;52423;43.512;5.220;2023-03-01T15:40:28;9.96;54.45
65707;SHT31;52423;43.512;5.220;2023-03-01T15:43:02;10.05;53.03
65707;SHT31;52423;43.512;5.220;2023-03-01T15:45:32;10.09;53.82
65707;SHT31;52423;43.512;5.220;2023-03-01T15:48:04;10.14;52.08
65707;SHT31;52423;43.512;5.220;2023-03-01T15:50:35;10.24;53.75
65707;SHT31;52423;43.512;5.220;2023-03-01T15:53:07;10.24;53.02
65707;SHT31;52423;43.512;5.220;2023-03-01T15:55:42;10.28;50.80
65707;SHT31;52423;43.512;5.220;2023-03-01T15:58:15;10.30;50.63
65707;SHT31;52423;43.512;5.220;2023-03-01T16:00:49;10.32;52.33
65707;SHT31;52423;43.512;5.220;2023-03-01T16:03:16;10.33;51.26
65707;SHT31;52423;43.512;5.220;2023-03-01T16:05:55;10.34;51.21
65707;SHT31;52423;43.512;5.220;2023-03-01T16:08:21;10.32;51.89
65707;SHT31;52423;43.512;5.220;2023-03-01T16:10:46;10.39;50.10
65707;SHT31;52423;43.512;5.220;2023-03-01T16:13:13;10.32;52.68
65707;SHT31;52423;43.512;5.220;2023-03-01T16:15:39;10.33;50.85
65707;SHT31;52423;43.512;5.220;2023-03-01T16:18:14;10.28;53.18
65707;SHT31;52423;43.512;5.220;2023-03-01T16:20:40;10.28;50.19
65707;SHT31;52423;43.512;5.220;2023-03-01T16:23:06;10.26;49.85
65707;SHT31;52423;43.512;5.220;2023-03-01T16:25:33;10.19;50.92
65707;SHT31;52423;43.512;5.220;2023-03-01T16:27:59;10.10;50.03
65707;SHT31;52423;43.512;5.220;2023-03-01T16:30:32;9.99;50.85
65707;SHT31;52423;43.512;5.220;2023-03-01T16:32:58;9.91;53.17
65707;SHT31;52423;43.512;5.220;2023-03-01T16:35:27;9.81;54.75
65707;SHT31;52423;43.512;5.220;2023-03-01T16:37:52;9.64;55.04
65707;SHT31;52423;43.512;5.220;2023-03-01T16:40:27;9.48;57.04
65707;SHT31;52423;43.512;5.220;2023-03-01T16:42:54;9.40;55.13
65707;SHT31;52423;43.512;5.220;2023-03-01T16:45:20;9.45;53.46
65707;SHT31;52423;43.512;5.220;2023-03-01T16:47:46;9.34;56.07
65707;SHT31;52423;43.512;5.220;2023-03-01T16:50:11;9.24;55.73
65707;SHT31;52423;43.512;5.220;2023-03-01T16:52:37;9.20;55.14
65707;SHT31;52423;43.512;5.220;2023-03-01T16:55:05;9.14;55.19
65707;SHT31;52423;43.512;5.220;2023-03-01T16:57:31;9.11;56.42
65707;SHT31;52423;43.512;5.220;2023-03-01T17:00:09;8.97;57.90
65707;SHT31;52423;43.512;5.220;2023-03-01T17:02:35;8.97;56.88
65707;SHT31;52423;43.512;5.220;2023-03-01T17:05:01;8.89;57.16
65707;SHT31;52423;43.512;5.220;2023-03-01T17:07:34;8.89;56.73
65707;SHT31;52423;43.512;5.220;2023-03-01T17:10:04;8.82;57.72
65707;SHT31;52423;43.512;5.220;2023-03-01T17:12:29;8.80;57.36
65707;SHT31;52423;43.512;5.220;2023-03-01T17:14:55;8.72;57.31
65707;SHT31;52423;43.512;5.220;2023-03-01T17:17:27;8.66;55.44
65707;SHT31;52423;43.512;5.220;2023-03-01T17:19:52;8.66;55.09
65707;SHT31;52423;43.512;5.220;2023-03-01T17:22:27;8.68;55.78
65707;SHT31;52423;43.512;5.220;2023-03-01T17:24:52;8.66;54.26
65707;SHT31;52423;43.512;5.220;2023-03-01T17:27:17;8.55;55.14
65707;SHT31;52423;43.512;5.220;2023-03-01T17:29:46;8.56;55.22
65707;SHT31;52423;43.512;5.220;2023-03-01T17:32:12;8.49;56.93
65707;SHT31;52423;43.512;5.220;2023-03-01T17:34:37;8.42;55.54
65707;SHT31;52423;43.512;5.220;2023-03-01T17:37:03;8.37;55.71
65707;SHT31;52423;43.512;5.220;2023-03-01T17:39:28;8.39;54.66
65707;SHT31;52423;43.512;5.220;2023-03-01T17:42:04;8.32;56.94
65707;SHT31;52423;43.512;5.220;2023-03-01T17:44:31;8.30;55.80
65707;SHT31;52423;43.512;5.220;2023-03-01T17:46:58;8.27;57.02
65707;SHT31;52423;43.512;5.220;2023-03-01T17:49:23;8.21;55.73
65707;SHT31;52423;43.512;5.220;2023-03-01T17:51:48;8.11;56.12
65707;SHT31;52423;43.512;5.220;2023-03-01T17:54:14;8.11;55.76
65707;SHT31;52423;43.512;5.220;2023-03-01T17:56:39;8.05;56.10